This is the latest recevied weather packets stored in our database for station/object DJ4CK-1. If no packets are shown the sender has not sent any weather packets the latest 1 day(s).
| Time | Temp. | Humidity | Pressure | Rain* | Wind** | Luminosity | Snow |
|---|---|---|---|---|---|---|---|
| 1778089203 | 12.22° C | 84% | 1006 hPa | 1.52 mm | - | - | - |
| 1778089024 | 12.22° C | 83% | 1006.1 hPa | 1.52 mm | - | - | - |
| 1778088964 | 12.22° C | 82% | 1006.1 hPa | 1.52 mm | - | - | - |
| 1778088723 | 12.78° C | 78% | 1006.1 hPa | 1.52 mm | - | - | - |
| 1778088544 | 12.78° C | 77% | 1006.1 hPa | 1.52 mm | - | - | - |
| 1778088304 | 12.22° C | 81% | 1006 hPa | 1.27 mm | - | - | - |
| 1778088244 | 12.22° C | 82% | 1005.9 hPa | 1.27 mm | - | - | - |
| 1778087824 | 12.78° C | 79% | 1005.8 hPa | 1.02 mm | - | - | - |
| 1778087763 | 12.78° C | 78% | 1005.8 hPa | 1.02 mm | - | - | - |
| 1778087284 | 13.33° C | 73% | 1005.5 hPa | 0.76 mm | - | - | - |
| 1778087044 | 12.78° C | 86% | 1005.3 hPa | 0.76 mm | - | - | - |
| 1778086983 | 12.78° C | 84% | 1005.3 hPa | 0.76 mm | - | - | - |
| 1778086804 | 13.89° C | 75% | 1005.2 hPa | 0.51 mm | - | - | - |
| 1778086444 | 15° C | 67% | 1005.1 hPa | 0.51 mm | - | - | - |
| 1778086323 | 15° C | 72% | 1005.1 hPa | 0.51 mm | - | - | - |
| 1778086144 | 15.56° C | 74% | 1005.1 hPa | 0.25 mm | - | - | - |
| 1778086084 | 16.11° C | 71% | 1005.1 hPa | 0.25 mm | - | - | - |
| 1778085844 | 17.22° C | 66% | 1005 hPa | 0 mm | - | - | - |
| 1778085724 | 17.22° C | 63% | 1005 hPa | 0 mm | - | - | - |
| 1778085663 | 17.22° C | 60% | 1004.9 hPa | 0 mm | - | - | - |
| 1778085484 | 17.78° C | 56% | 1004.7 hPa | 0 mm | - | - | - |
| 1778085244 | 17.78° C | 55% | 1004.6 hPa | 0 mm | - | - | - |
| 1778085183 | 17.78° C | 55% | 1004.6 hPa | 0 mm | - | - | - |
| 1778085124 | 17.78° C | 56% | 1004.6 hPa | 0 mm | - | - | - |
| 1778085004 | 17.78° C | 58% | 1004.6 hPa | 0 mm | - | - | - |
* Rain latest hour (hover to see other rain measurements)
** Current wind speed in m/s (hover to see current wind gust speed)